createdAt,value
2017-03-18T00:00:01.898Z,0
2017-03-18T00:01:14.129Z,0
2017-03-18T00:02:27.342Z,0
2017-03-18T00:03:40.095Z,0
2017-03-18T00:04:53.328Z,0
2017-03-18T00:06:06.545Z,0
2017-03-18T00:07:19.348Z,0
2017-03-18T00:08:32.085Z,0
2017-03-18T00:09:45.332Z,0
2017-03-18T00:10:58.121Z,0
2017-03-18T00:12:42.970Z,0
2017-03-18T00:13:56.420Z,0
2017-03-18T00:15:09.638Z,0
2017-03-18T00:16:22.860Z,0
2017-03-18T00:17:36.159Z,0
2017-03-18T00:18:49.039Z,0
2017-03-18T00:20:02.272Z,0
2017-03-18T00:21:15.542Z,0
2017-03-18T00:22:28.238Z,0
2017-03-18T00:23:40.957Z,0
2017-03-18T00:24:54.186Z,0
2017-03-18T00:26:07.452Z,0
2017-03-18T00:27:19.709Z,0
2017-03-18T00:28:32.990Z,0
2017-03-18T00:29:46.222Z,0
2017-03-18T00:30:59.167Z,0
2017-03-18T00:32:12.791Z,0
2017-03-18T00:33:25.496Z,0
2017-03-18T00:34:38.723Z,0
2017-03-18T00:35:52.011Z,0
2017-03-18T00:37:05.264Z,0
2017-03-18T00:38:18.541Z,0
2017-03-18T00:39:31.770Z,0
2017-03-18T00:40:45.015Z,0
2017-03-18T00:41:58.289Z,0
2017-03-18T00:43:11.583Z,0
2017-03-18T00:44:24.817Z,0
2017-03-18T00:45:38.040Z,0
2017-03-18T00:46:51.278Z,0
2017-03-18T00:48:04.522Z,0
2017-03-18T00:49:17.313Z,0
2017-03-18T00:50:30.564Z,0
2017-03-18T00:51:43.311Z,0
2017-03-18T00:52:56.567Z,0
2017-03-18T00:54:09.824Z,0
2017-03-18T00:55:22.020Z,0
2017-03-18T00:56:35.243Z,0
2017-03-18T00:57:47.969Z,0
2017-03-18T00:59:00.712Z,0
2017-03-18T01:00:13.533Z,0
2017-03-18T01:01:26.808Z,0
2017-03-18T01:02:40.083Z,0
2017-03-18T01:03:53.329Z,0
2017-03-18T01:05:06.605Z,0
2017-03-18T01:06:19.312Z,0
2017-03-18T01:07:32.589Z,0
2017-03-18T01:08:45.844Z,0
2017-03-18T01:09:58.054Z,0
2017-03-18T01:11:11.336Z,0
2017-03-18T01:12:24.122Z,0
2017-03-18T01:13:37.344Z,0
2017-03-18T01:14:50.557Z,0
2017-03-18T01:16:03.309Z,0
2017-03-18T01:17:16.596Z,0
2017-03-18T01:18:29.850Z,0
2017-03-18T01:19:42.054Z,0
2017-03-18T01:20:54.876Z,0
2017-03-18T01:22:07.597Z,0
2017-03-18T01:23:19.807Z,0
2017-03-18T01:24:33.009Z,0
2017-03-18T01:25:45.723Z,0
2017-03-18T01:26:58.949Z,0
2017-03-18T01:28:12.172Z,0
2017-03-18T01:29:24.916Z,0
2017-03-18T01:30:38.179Z,0
2017-03-18T01:31:51.495Z,0
2017-03-18T01:33:04.751Z,0
2017-03-18T01:34:17.469Z,0
2017-03-18T01:35:30.682Z,0
2017-03-18T01:36:43.403Z,0
2017-03-18T01:37:56.667Z,0
2017-03-18T01:39:09.895Z,0
2017-03-18T01:40:23.153Z,0
2017-03-18T01:41:36.406Z,0
2017-03-18T01:42:49.617Z,0
2017-03-18T01:44:02.872Z,0
2017-03-18T01:45:16.155Z,0
2017-03-18T01:46:29.408Z,0
2017-03-18T01:47:41.644Z,0
2017-03-18T01:48:54.899Z,0
2017-03-18T01:50:08.156Z,0
2017-03-18T01:51:20.913Z,0
2017-03-18T01:52:34.117Z,0
2017-03-18T01:53:47.375Z,0
2017-03-18T01:55:00.643Z,0
2017-03-18T01:56:12.854Z,0
2017-03-18T01:57:26.201Z,0
2017-03-18T01:58:39.475Z,0
2017-03-18T01:59:52.696Z,0
2017-03-18T02:01:05.903Z,0
2017-03-18T02:02:18.118Z,0
2017-03-18T02:03:31.441Z,0
2017-03-18T02:04:44.651Z,0
2017-03-18T02:05:57.873Z,0
2017-03-18T02:07:10.624Z,0
2017-03-18T02:08:23.872Z,0
2017-03-18T02:09:37.121Z,0
2017-03-18T02:10:50.379Z,0
2017-03-18T02:12:03.690Z,0
2017-03-18T02:13:16.406Z,0
2017-03-18T02:14:29.671Z,0
2017-03-18T02:15:42.931Z,0
2017-03-18T02:16:55.660Z,0
2017-03-18T02:18:09.032Z,0
2017-03-18T02:19:21.783Z,0
2017-03-18T02:20:33.978Z,0
2017-03-18T02:21:47.284Z,0
2017-03-18T02:22:59.993Z,0
2017-03-18T02:24:13.213Z,0
2017-03-18T02:25:25.933Z,0
2017-03-18T02:26:39.170Z,0
2017-03-18T02:27:51.898Z,0
2017-03-18T02:29:05.178Z,0
2017-03-18T02:30:17.886Z,0
2017-03-18T02:31:31.106Z,0
2017-03-18T02:32:44.353Z,0
2017-03-18T02:33:57.590Z,0
2017-03-18T02:35:10.804Z,0
2017-03-18T02:36:23.044Z,0
2017-03-18T02:37:36.358Z,0
2017-03-18T02:38:49.622Z,0
2017-03-18T02:40:02.897Z,0
2017-03-18T02:41:15.173Z,0
2017-03-18T02:42:27.886Z,0
2017-03-18T02:43:41.152Z,0
2017-03-18T02:44:54.412Z,0
2017-03-18T02:46:06.612Z,0
2017-03-18T02:47:19.871Z,0
2017-03-18T02:48:33.169Z,0
2017-03-18T02:49:46.409Z,0
2017-03-18T02:50:59.635Z,0
2017-03-18T02:52:12.387Z,0
2017-03-18T02:53:25.639Z,0
2017-03-18T02:54:38.882Z,0
2017-03-18T02:55:52.136Z,0
2017-03-18T02:57:05.374Z,0
2017-03-18T02:58:18.130Z,0
2017-03-18T02:59:31.362Z,0
2017-03-18T03:00:44.059Z,0
2017-03-18T03:01:57.328Z,0
2017-03-18T03:03:10.052Z,0
2017-03-18T03:04:22.754Z,0
2017-03-18T03:05:36.039Z,0
2017-03-18T03:06:49.278Z,0
2017-03-18T03:08:02.573Z,0
2017-03-18T03:09:15.813Z,0
2017-03-18T03:10:29.036Z,0
2017-03-18T03:11:42.297Z,0
2017-03-18T03:12:55.513Z,0
2017-03-18T03:14:08.246Z,0
2017-03-18T03:15:21.473Z,0
2017-03-18T03:16:34.719Z,0
2017-03-18T03:17:47.985Z,0
2017-03-18T03:19:00.726Z,0
2017-03-18T03:20:13.482Z,0
2017-03-18T03:21:26.213Z,0
2017-03-18T03:22:39.485Z,0
2017-03-18T03:23:52.205Z,0
2017-03-18T03:25:05.453Z,0
2017-03-18T03:26:18.704Z,0
2017-03-18T03:27:31.948Z,0
2017-03-18T03:28:45.191Z,0
2017-03-18T03:29:58.417Z,0
2017-03-18T03:31:11.681Z,0
2017-03-18T03:32:24.399Z,0
2017-03-18T03:33:37.640Z,0
2017-03-18T03:34:50.938Z,0
2017-03-18T03:36:03.691Z,0
2017-03-18T03:37:16.944Z,0
2017-03-18T03:38:29.691Z,0
2017-03-18T03:39:42.898Z,0
2017-03-18T03:40:56.168Z,0
2017-03-18T03:42:08.878Z,0
2017-03-18T03:43:21.588Z,0
2017-03-18T03:44:34.849Z,0
2017-03-18T03:45:48.085Z,0
2017-03-18T03:47:01.352Z,0
2017-03-18T03:48:14.054Z,0
2017-03-18T03:49:25.774Z,0
2017-03-18T03:50:38.494Z,0
2017-03-18T03:51:51.712Z,0
2017-03-18T03:53:04.975Z,0
2017-03-18T03:54:17.737Z,0
2017-03-18T03:55:30.997Z,0
2017-03-18T03:56:43.694Z,0
2017-03-18T03:57:56.898Z,0
2017-03-18T03:59:09.666Z,0
2017-03-18T04:00:22.901Z,0
2017-03-18T04:01:35.717Z,0
2017-03-18T04:02:48.462Z,0
2017-03-18T04:04:01.723Z,0
2017-03-18T04:05:14.987Z,0
2017-03-18T04:06:28.224Z,0
2017-03-18T04:07:41.859Z,0
2017-03-18T04:08:55.269Z,0
2017-03-18T04:10:08.542Z,0
2017-03-18T04:11:21.779Z,0
2017-03-18T04:12:34.962Z,0
2017-03-18T04:13:47.672Z,0
2017-03-18T04:15:00.923Z,0
2017-03-18T04:16:13.659Z,0
2017-03-18T04:17:26.373Z,0
2017-03-18T04:18:39.646Z,0
2017-03-18T04:19:52.349Z,0
2017-03-18T04:21:05.550Z,0
2017-03-18T04:22:18.833Z,0
2017-03-18T04:23:32.107Z,0
2017-03-18T04:24:45.344Z,0
2017-03-18T04:25:58.593Z,0
2017-03-18T04:27:11.870Z,0
2017-03-18T04:28:25.108Z,0
2017-03-18T04:29:38.375Z,0
2017-03-18T04:30:51.603Z,0
2017-03-18T04:32:04.890Z,0
2017-03-18T04:33:18.138Z,0
2017-03-18T04:34:31.377Z,0
2017-03-18T04:35:44.585Z,0
2017-03-18T04:36:57.849Z,0
2017-03-18T04:38:10.685Z,0
2017-03-18T04:39:23.895Z,0
2017-03-18T04:40:36.133Z,0
2017-03-18T04:41:49.375Z,0
2017-03-18T04:43:02.569Z,0
2017-03-18T04:44:15.315Z,0
2017-03-18T04:45:28.545Z,0
2017-03-18T04:46:41.769Z,0
2017-03-18T04:47:54.509Z,0
2017-03-18T04:49:07.724Z,0
2017-03-18T04:50:20.464Z,0
2017-03-18T04:51:33.683Z,0
2017-03-18T04:52:45.908Z,0
2017-03-18T04:53:58.672Z,0
2017-03-18T04:55:11.365Z,0
2017-03-18T04:56:24.586Z,0
2017-03-18T04:57:37.817Z,0
2017-03-18T04:58:51.058Z,0
2017-03-18T05:00:04.321Z,0
2017-03-18T05:01:17.575Z,0
2017-03-18T05:02:29.792Z,0
2017-03-18T05:03:43.032Z,0
2017-03-18T05:04:56.308Z,0
2017-03-18T05:06:09.570Z,0
2017-03-18T05:07:22.313Z,0
2017-03-18T05:08:35.022Z,0
2017-03-18T05:09:48.284Z,0
2017-03-18T05:11:01.548Z,0
2017-03-18T05:12:14.812Z,0
2017-03-18T05:13:27.076Z,0
2017-03-18T05:14:39.279Z,0
2017-03-18T05:15:52.526Z,0
2017-03-18T05:17:05.768Z,0
2017-03-18T05:18:19.015Z,0
2017-03-18T05:19:31.730Z,0
2017-03-18T05:20:44.970Z,0
2017-03-18T05:21:58.183Z,0
2017-03-18T05:23:10.894Z,0
2017-03-18T05:24:23.112Z,0
2017-03-18T05:25:36.389Z,0
2017-03-18T05:26:49.180Z,0
2017-03-18T05:28:02.483Z,0
2017-03-18T05:29:15.739Z,0
2017-03-18T05:30:28.978Z,0
2017-03-18T05:31:41.717Z,0
2017-03-18T05:32:54.940Z,0
2017-03-18T05:34:08.222Z,0
2017-03-18T05:35:21.428Z,0
2017-03-18T05:36:34.130Z,0
2017-03-18T05:37:47.359Z,0
2017-03-18T05:39:00.086Z,0
2017-03-18T05:40:13.304Z,0
2017-03-18T05:41:26.023Z,0
2017-03-18T05:42:38.876Z,0
2017-03-18T05:43:52.132Z,0
2017-03-18T05:45:05.380Z,0
2017-03-18T05:46:18.609Z,0
2017-03-18T05:47:31.414Z,0
2017-03-18T05:48:44.653Z,0
2017-03-18T05:49:57.908Z,0
2017-03-18T05:51:11.141Z,0
2017-03-18T05:52:24.392Z,0
2017-03-18T05:53:37.138Z,0
2017-03-18T05:54:49.842Z,0
2017-03-18T05:56:02.563Z,0
2017-03-18T05:57:15.748Z,0
2017-03-18T05:58:27.944Z,0
2017-03-18T05:59:40.682Z,0
2017-03-18T06:00:53.911Z,0
2017-03-18T06:02:07.149Z,0
2017-03-18T06:03:19.859Z,0
2017-03-18T06:04:33.121Z,0
2017-03-18T06:05:45.894Z,0
2017-03-18T06:06:59.130Z,0
2017-03-18T06:08:12.328Z,0
2017-03-18T06:09:25.064Z,0
2017-03-18T06:10:37.783Z,0
2017-03-18T06:11:50.019Z,0
2017-03-18T06:13:02.733Z,0
2017-03-18T06:14:15.965Z,0
2017-03-18T06:15:29.189Z,0
2017-03-18T06:16:41.374Z,0
2017-03-18T06:17:54.098Z,0
2017-03-18T06:19:07.319Z,0
2017-03-18T06:20:19.566Z,0
2017-03-18T06:21:32.918Z,0
2017-03-18T06:22:46.190Z,0
2017-03-18T06:23:59.409Z,0
2017-03-18T06:25:12.663Z,0
2017-03-18T06:26:25.908Z,0
2017-03-18T06:27:38.641Z,0
2017-03-18T06:28:51.899Z,0
2017-03-18T06:30:04.618Z,0
2017-03-18T06:31:17.404Z,0
2017-03-18T06:32:30.172Z,0
2017-03-18T06:33:42.910Z,0
2017-03-18T06:34:56.186Z,0
2017-03-18T06:36:09.441Z,0
2017-03-18T06:37:21.647Z,0
2017-03-18T06:38:34.882Z,0
2017-03-18T06:39:47.642Z,0
2017-03-18T06:41:00.863Z,0
2017-03-18T06:42:14.103Z,0
2017-03-18T06:43:27.389Z,0
2017-03-18T06:44:40.086Z,0
2017-03-18T06:45:52.850Z,0
2017-03-18T06:47:06.094Z,0
2017-03-18T06:48:19.326Z,0
2017-03-18T06:49:32.606Z,0
2017-03-18T06:50:45.309Z,0
2017-03-18T06:51:58.584Z,0
2017-03-18T06:53:11.815Z,0
2017-03-18T06:54:24.506Z,0
2017-03-18T06:55:37.748Z,0
2017-03-18T06:56:51.000Z,0
2017-03-18T06:58:04.233Z,0
2017-03-18T06:59:16.981Z,0
2017-03-18T07:00:30.214Z,0
2017-03-18T07:01:43.460Z,0
2017-03-18T07:02:56.677Z,0
2017-03-18T07:04:09.925Z,0
2017-03-18T07:05:22.666Z,0
2017-03-18T07:06:35.405Z,0
2017-03-18T07:07:48.653Z,0
2017-03-18T07:09:01.352Z,0
2017-03-18T07:10:14.582Z,0
2017-03-18T07:11:27.341Z,0
2017-03-18T07:12:40.585Z,0
2017-03-18T07:13:53.808Z,0
2017-03-18T07:15:07.096Z,0
2017-03-18T07:16:20.337Z,0
2017-03-18T07:17:33.047Z,0
2017-03-18T07:18:46.293Z,0
2017-03-18T07:19:59.557Z,0
2017-03-18T07:21:12.286Z,0
2017-03-18T07:22:25.516Z,0
2017-03-18T07:23:38.758Z,0
2017-03-18T07:24:52.104Z,0
2017-03-18T07:26:05.357Z,0
2017-03-18T07:27:18.111Z,0
2017-03-18T07:28:31.405Z,0
2017-03-18T07:29:44.732Z,0
2017-03-18T07:30:57.487Z,0
2017-03-18T07:32:10.248Z,0
2017-03-18T07:33:22.461Z,0
2017-03-18T07:34:35.688Z,0
2017-03-18T07:35:48.925Z,0
2017-03-18T07:37:02.153Z,0
2017-03-18T07:38:14.915Z,0
2017-03-18T07:39:27.653Z,0
2017-03-18T07:40:39.902Z,0
2017-03-18T07:41:51.599Z,0
2017-03-18T07:43:04.929Z,0
2017-03-18T07:44:18.149Z,0
2017-03-18T07:45:31.379Z,0
2017-03-18T07:46:44.601Z,0
2017-03-18T07:47:57.856Z,0
2017-03-18T07:49:11.099Z,0
2017-03-18T07:50:24.362Z,0
2017-03-18T07:51:37.595Z,0
2017-03-18T07:52:50.321Z,0
2017-03-18T07:54:03.559Z,0
2017-03-18T07:55:16.303Z,0
2017-03-18T07:56:27.990Z,0
2017-03-18T07:57:41.456Z,0
2017-03-18T07:58:54.685Z,0
2017-03-18T08:00:07.949Z,0
2017-03-18T08:01:21.222Z,0
2017-03-18T08:02:34.759Z,0
2017-03-18T08:03:47.608Z,0
2017-03-18T08:05:00.847Z,0
2017-03-18T08:06:13.587Z,0
2017-03-18T08:07:26.828Z,0
2017-03-18T08:08:39.611Z,0
2017-03-18T08:09:52.900Z,0
2017-03-18T08:11:06.133Z,0
2017-03-18T08:12:19.368Z,0
2017-03-18T08:13:32.622Z,0
2017-03-18T08:14:44.851Z,0
2017-03-18T08:15:57.618Z,0
2017-03-18T08:48:14.603Z,0
2017-03-18T08:49:27.844Z,4
2017-03-18T08:50:40.556Z,4
2017-03-18T08:51:53.279Z,4
2017-03-18T08:53:06.012Z,4
2017-03-18T08:54:19.279Z,8
2017-03-18T08:55:32.494Z,16
2017-03-18T08:56:45.757Z,20
2017-03-18T08:57:59.000Z,24
2017-03-18T08:59:12.251Z,36
2017-03-18T09:00:25.480Z,52
2017-03-18T09:01:38.829Z,68
2017-03-18T09:02:51.561Z,88
2017-03-18T09:04:03.788Z,112
2017-03-18T09:05:16.528Z,144
2017-03-18T09:06:29.737Z,172
2017-03-18T09:07:42.469Z,200
2017-03-18T09:08:55.702Z,248
2017-03-18T09:10:08.421Z,288
2017-03-18T09:11:21.667Z,312
2017-03-18T09:12:34.934Z,352
2017-03-18T09:13:46.665Z,388
2017-03-18T09:14:59.952Z,432
2017-03-18T09:16:12.678Z,496
2017-03-18T09:17:25.923Z,556
2017-03-18T09:18:39.171Z,608
2017-03-18T09:19:51.909Z,680
2017-03-18T09:21:04.150Z,772
2017-03-18T09:22:16.866Z,864
2017-03-18T09:23:30.130Z,964
2017-03-18T09:24:43.388Z,1060
2017-03-18T09:25:56.683Z,1180
2017-03-18T09:27:09.414Z,1284
2017-03-18T09:28:22.660Z,1364
2017-03-18T09:29:35.900Z,1452
2017-03-18T09:30:49.144Z,1540
2017-03-18T09:32:02.416Z,1636
2017-03-18T09:33:15.140Z,1744
2017-03-18T09:34:27.387Z,1884
2017-03-18T09:35:40.113Z,2056
2017-03-18T09:36:53.359Z,1408
2017-03-18T09:38:06.601Z,1672
2017-03-18T09:39:19.870Z,1920
2017-03-18T09:40:33.090Z,2076
2017-03-18T09:41:46.373Z,3112
2017-03-18T09:42:59.693Z,3308
2017-03-18T09:44:12.403Z,3428
2017-03-18T09:45:24.596Z,3440
2017-03-18T09:46:37.835Z,3248
2017-03-18T09:47:51.065Z,3008
2017-03-18T09:49:04.303Z,2596
2017-03-18T09:50:17.508Z,2148
2017-03-18T09:51:30.291Z,2000
2017-03-18T09:52:43.544Z,1892
2017-03-18T09:53:56.269Z,1892
2017-03-18T09:55:09.019Z,2052
2017-03-18T09:56:22.282Z,2268
2017-03-18T09:57:35.593Z,2740
2017-03-18T09:58:48.836Z,2968
2017-03-18T10:00:02.101Z,2944
2017-03-18T10:01:14.831Z,3056
2017-03-18T10:02:28.075Z,3772
2017-03-18T10:03:41.345Z,4124
2017-03-18T10:04:54.740Z,4588
2017-03-18T10:06:08.004Z,4404
2017-03-18T10:07:21.243Z,4952
2017-03-18T10:08:34.462Z,5620
2017-03-18T10:09:47.675Z,6764
2017-03-18T10:11:00.412Z,7808
2017-03-18T10:12:13.128Z,8100
2017-03-18T10:13:26.373Z,8748
2017-03-18T10:14:39.611Z,9628
2017-03-18T10:15:52.851Z,9204
2017-03-18T10:17:05.594Z,9040
2017-03-18T10:18:18.402Z,9544
2017-03-18T10:19:31.633Z,9836
2017-03-18T10:20:44.343Z,10176
2017-03-18T10:21:57.560Z,10728
2017-03-18T10:23:10.298Z,11588
2017-03-18T10:24:23.515Z,11992
2017-03-18T10:25:36.741Z,11680
2017-03-18T10:26:50.004Z,11920
2017-03-18T10:28:03.237Z,12132
2017-03-18T10:29:16.448Z,12336
2017-03-18T10:30:29.684Z,12704
2017-03-18T10:31:42.432Z,13604
2017-03-18T10:32:55.705Z,14432
2017-03-18T10:34:08.944Z,14748
2017-03-18T10:35:22.179Z,14972
2017-03-18T10:36:35.428Z,15224
2017-03-18T10:37:47.629Z,15372
2017-03-18T10:39:01.005Z,15648
2017-03-18T10:40:14.271Z,15604
2017-03-18T10:41:27.500Z,15412
2017-03-18T10:42:40.842Z,16104
2017-03-18T10:43:53.620Z,16220
2017-03-18T10:45:06.320Z,16080
2017-03-18T10:46:19.558Z,15768
2017-03-18T10:47:32.832Z,15240
2017-03-18T10:48:46.122Z,14000
2017-03-18T10:49:59.376Z,12048
2017-03-18T10:51:12.669Z,10284
2017-03-18T10:52:25.927Z,9424
2017-03-18T10:53:39.168Z,9100
2017-03-18T10:54:51.898Z,8640
2017-03-18T10:56:04.752Z,9016
2017-03-18T10:57:18.055Z,10076
2017-03-18T10:58:30.768Z,10444
2017-03-18T10:59:43.493Z,10444
2017-03-18T11:00:56.218Z,10472
2017-03-18T11:02:08.962Z,11396
2017-03-18T11:03:21.666Z,10956
2017-03-18T11:04:34.385Z,11008
2017-03-18T11:05:47.112Z,9832
2017-03-18T11:06:59.822Z,8804
2017-03-18T11:08:13.041Z,8204
2017-03-18T11:09:26.277Z,7604
2017-03-18T11:10:39.104Z,8248
2017-03-18T11:11:51.311Z,9256
2017-03-18T11:13:04.556Z,9992
2017-03-18T11:14:17.774Z,10492
2017-03-18T11:15:31.009Z,10776
2017-03-18T11:16:44.282Z,9588
2017-03-18T11:17:57.568Z,8040
2017-03-18T11:19:10.804Z,7188
2017-03-18T11:20:24.113Z,7268
2017-03-18T11:21:36.835Z,7140
2017-03-18T11:22:49.583Z,6760
2017-03-18T11:24:02.902Z,7460
2017-03-18T11:25:16.466Z,7696
2017-03-18T11:26:29.705Z,9848
2017-03-18T11:27:42.985Z,10884
2017-03-18T11:28:56.213Z,11544
2017-03-18T11:30:07.923Z,11684
2017-03-18T11:31:21.213Z,12032
2017-03-18T11:32:34.470Z,14108
2017-03-18T11:33:47.726Z,14704
2017-03-18T11:35:00.959Z,15144
2017-03-18T11:36:14.221Z,15812
2017-03-18T11:37:26.983Z,16760
2017-03-18T11:38:39.172Z,17708
2017-03-18T11:39:52.366Z,18272
2017-03-18T11:41:05.579Z,18400
2017-03-18T11:42:18.831Z,17276
2017-03-18T11:43:31.033Z,17280
2017-03-18T11:44:44.282Z,20000
2017-03-18T11:45:57.525Z,22272
2017-03-18T11:47:10.751Z,21152
2017-03-18T11:48:24.015Z,19872
2017-03-18T11:49:37.250Z,18304
2017-03-18T11:50:50.475Z,16312
2017-03-18T11:52:03.240Z,15976
2017-03-18T11:53:16.494Z,14300
2017-03-18T11:54:29.726Z,12572
2017-03-18T11:55:42.437Z,12536
2017-03-18T11:56:54.769Z,13040
2017-03-18T11:58:08.043Z,13476
2017-03-18T11:59:20.733Z,14192
2017-03-18T12:00:34.008Z,14952
2017-03-18T12:01:47.248Z,15172
2017-03-18T12:03:00.502Z,14760
2017-03-18T12:04:13.264Z,14436
2017-03-18T12:05:26.650Z,14460
2017-03-18T12:06:39.880Z,14756
2017-03-18T12:07:52.625Z,14896
2017-03-18T12:09:05.321Z,15432
2017-03-18T12:10:18.038Z,16752
2017-03-18T12:11:30.245Z,18560
2017-03-18T12:12:42.999Z,19488
2017-03-18T12:13:55.776Z,20128
2017-03-18T12:15:09.000Z,19456
2017-03-18T12:16:22.247Z,18144
2017-03-18T12:17:34.990Z,16224
2017-03-18T12:18:47.752Z,15068
2017-03-18T12:20:00.996Z,15392
2017-03-18T12:21:13.738Z,16760
2017-03-18T12:22:26.947Z,19744
2017-03-18T12:23:39.774Z,23936
2017-03-18T12:24:53.045Z,27456
2017-03-18T12:26:05.772Z,28672
2017-03-18T12:27:17.963Z,26976
2017-03-18T12:28:30.688Z,26880
2017-03-18T12:29:42.882Z,24384
2017-03-18T12:30:56.083Z,21376
2017-03-18T12:32:09.351Z,19296
2017-03-18T12:33:22.066Z,19968
2017-03-18T12:34:34.791Z,17760
2017-03-18T12:35:47.544Z,17164
2017-03-18T12:37:00.967Z,15456
2017-03-18T12:38:13.734Z,14472
2017-03-18T12:39:58.144Z,14892
2017-03-18T12:41:10.913Z,15248
2017-03-18T12:42:24.156Z,13380
2017-03-18T12:43:37.428Z,13044
2017-03-18T12:44:50.146Z,14248
2017-03-18T12:46:03.389Z,15660
2017-03-18T12:47:16.154Z,14812
2017-03-18T12:48:28.366Z,11992
2017-03-18T12:49:41.107Z,10400
2017-03-18T12:50:54.331Z,10900
2017-03-18T12:52:06.537Z,10296
2017-03-18T12:53:19.770Z,10304
2017-03-18T12:54:33.009Z,10436
2017-03-18T12:55:46.259Z,12120
2017-03-18T12:56:59.000Z,15476
2017-03-18T12:58:11.723Z,18272
2017-03-18T12:59:24.969Z,19392
2017-03-18T13:00:38.210Z,18816
2017-03-18T13:01:51.438Z,19680
2017-03-18T13:03:04.193Z,21216
2017-03-18T13:04:16.934Z,22624
2017-03-18T13:05:30.182Z,19200
2017-03-18T13:06:43.417Z,15804
2017-03-18T13:07:56.661Z,17340
2017-03-18T13:09:09.371Z,19936
2017-03-18T13:10:22.661Z,19040
2017-03-18T13:11:35.894Z,17416
2017-03-18T13:12:49.170Z,13764
2017-03-18T13:14:01.375Z,11976
2017-03-18T13:15:14.116Z,15124
2017-03-18T13:16:27.391Z,17084
2017-03-18T13:17:40.172Z,17548
2017-03-18T13:18:53.391Z,16124
2017-03-18T13:20:06.139Z,13492
2017-03-18T13:21:19.381Z,12484
2017-03-18T13:22:32.081Z,12572
2017-03-18T13:23:45.499Z,12544
2017-03-18T13:24:58.791Z,12000
2017-03-18T13:26:12.004Z,12060
2017-03-18T13:27:24.746Z,13952
2017-03-18T13:28:38.040Z,14608
2017-03-18T13:30:21.918Z,14224
2017-03-18T13:31:35.165Z,15008
2017-03-18T13:32:48.406Z,16212
2017-03-18T13:34:01.707Z,19136
2017-03-18T13:35:14.948Z,22848
2017-03-18T13:36:28.173Z,26048
2017-03-18T13:37:41.411Z,28288
2017-03-18T13:38:54.677Z,31712
2017-03-18T13:40:07.944Z,32768
2017-03-18T13:41:21.148Z,32480
2017-03-18T13:42:34.375Z,30592
2017-03-18T13:43:47.155Z,29088
2017-03-18T13:45:00.371Z,25472
2017-03-18T13:46:13.565Z,24288
2017-03-18T13:47:26.860Z,22016
2017-03-18T13:48:39.598Z,16756
2017-03-18T13:49:52.337Z,12068
2017-03-18T13:51:05.625Z,10896
2017-03-18T13:53:20.670Z,9236
2017-03-18T13:54:33.925Z,9400
2017-03-18T13:55:47.191Z,10660
2017-03-18T13:56:59.917Z,12156
2017-03-18T13:58:12.625Z,12896
2017-03-18T13:59:25.871Z,9892
2017-03-18T14:00:38.606Z,9688
2017-03-18T14:01:52.045Z,8868
2017-03-18T14:03:04.311Z,8188
2017-03-18T14:04:17.529Z,9328
2017-03-18T14:05:30.774Z,9756
2017-03-18T14:06:44.028Z,11204
2017-03-18T14:07:57.265Z,15436
2017-03-18T14:09:09.977Z,18240
2017-03-18T14:10:22.774Z,20576
2017-03-18T14:11:36.005Z,21856
2017-03-18T14:12:48.785Z,20640
2017-03-18T14:14:01.490Z,16544
2017-03-18T14:15:14.722Z,18656
2017-03-18T14:16:27.506Z,18624
2017-03-18T14:17:40.735Z,15468
2017-03-18T14:18:53.474Z,15596
2017-03-18T14:20:06.766Z,19008
2017-03-18T14:21:18.981Z,19616
2017-03-18T14:22:31.732Z,22368
2017-03-18T14:23:45.005Z,23136
2017-03-18T14:24:57.724Z,21504
2017-03-18T14:26:10.965Z,17728
2017-03-18T14:27:23.699Z,13860
2017-03-18T14:28:36.434Z,14012
2017-03-18T14:29:49.658Z,13932
2017-03-18T14:31:02.415Z,15092
2017-03-18T14:32:15.686Z,20928
2017-03-18T14:33:28.441Z,22368
2017-03-18T14:34:41.697Z,26752
2017-03-18T14:35:54.944Z,25568
2017-03-18T14:37:07.674Z,29344
2017-03-18T14:38:20.899Z,28768
2017-03-18T14:39:34.137Z,21056
2017-03-18T14:40:46.855Z,15812
2017-03-18T14:42:00.155Z,14848
2017-03-18T14:43:13.397Z,14208
2017-03-18T14:44:26.152Z,17336
2017-03-18T14:45:39.367Z,17168
2017-03-18T14:46:52.096Z,13748
2017-03-18T14:48:04.415Z,12936
2017-03-18T14:49:17.664Z,14712
2017-03-18T14:50:30.948Z,20672
2017-03-18T14:51:44.262Z,21856
2017-03-18T14:52:57.518Z,21376
2017-03-18T14:54:10.768Z,21152
2017-03-18T14:55:23.986Z,14192
2017-03-18T14:56:36.737Z,13336
2017-03-18T14:57:49.483Z,12776
2017-03-18T14:59:02.713Z,14164
2017-03-18T15:00:14.923Z,16196
2017-03-18T15:01:28.207Z,15512
2017-03-18T15:02:41.458Z,17496
2017-03-18T15:03:54.715Z,16252
2017-03-18T15:05:07.941Z,13544
2017-03-18T15:06:21.215Z,13312
2017-03-18T15:07:34.446Z,13608
2017-03-18T15:08:47.174Z,13572
2017-03-18T15:10:00.416Z,13224
2017-03-18T15:11:13.139Z,13772
2017-03-18T15:12:26.421Z,18848
2017-03-18T15:13:39.676Z,19328
2017-03-18T15:14:52.902Z,21728
2017-03-18T15:16:04.582Z,22752
2017-03-18T15:17:17.816Z,21120
2017-03-18T15:18:30.574Z,18528
2017-03-18T15:19:43.862Z,25184
2017-03-18T15:20:57.102Z,28896
2017-03-18T15:22:10.375Z,20832
2017-03-18T15:23:23.584Z,19328
2017-03-18T15:24:36.831Z,20000
2017-03-18T15:25:50.078Z,19040
2017-03-18T15:27:02.787Z,20768
2017-03-18T15:28:15.536Z,22336
2017-03-18T15:29:28.771Z,22144
2017-03-18T15:30:41.509Z,22496
2017-03-18T15:31:54.732Z,24256
2017-03-18T15:33:07.155Z,27168
2017-03-18T15:34:20.385Z,29952
2017-03-18T15:35:33.167Z,31584
2017-03-18T15:36:46.429Z,32320
2017-03-18T15:37:59.692Z,32128
2017-03-18T15:39:12.925Z,31744
2017-03-18T15:40:25.614Z,29728
2017-03-18T15:41:38.433Z,31456
2017-03-18T15:42:51.663Z,33760
2017-03-18T15:44:04.876Z,33088
2017-03-18T15:45:18.089Z,36032
2017-03-18T15:46:30.824Z,40064
2017-03-18T15:47:44.058Z,46016
2017-03-18T15:50:41.700Z,42304
2017-03-18T15:51:54.398Z,39552
2017-03-18T15:53:07.705Z,33632
2017-03-18T15:54:20.948Z,34432
2017-03-18T15:55:34.187Z,33440
2017-03-18T15:56:47.433Z,30656
2017-03-18T15:57:59.651Z,35264
2017-03-18T15:59:12.399Z,36864
2017-03-18T16:00:25.635Z,38720
2017-03-18T16:01:38.900Z,35616
2017-03-18T16:02:51.657Z,45536
2017-03-18T16:04:04.557Z,42304
2017-03-18T16:20:33.597Z,41248
2017-03-18T16:21:46.322Z,36416
2017-03-18T16:22:59.554Z,34752
2017-03-18T16:24:11.800Z,36256
2017-03-18T16:25:25.032Z,41408
2017-03-18T16:26:37.789Z,48352
2017-03-18T16:27:50.009Z,55968
2017-03-18T16:29:02.889Z,22496
2017-03-18T16:30:16.133Z,22912
2017-03-18T16:31:29.420Z,37312
2017-03-18T16:32:42.648Z,38784
2017-03-18T16:33:55.898Z,37504
2017-03-18T16:35:08.108Z,43552
2017-03-18T16:36:21.346Z,34080
2017-03-18T16:37:34.595Z,37312
2017-03-18T16:38:47.370Z,32128
2017-03-18T16:40:00.590Z,36672
2017-03-18T16:41:13.837Z,31936
2017-03-18T16:42:26.572Z,33248
2017-03-18T16:43:39.821Z,43328
2017-03-18T16:44:53.043Z,42688
2017-03-18T16:46:06.309Z,41664
2017-03-18T16:47:19.564Z,39392
2017-03-18T16:48:31.754Z,32384
2017-03-18T16:49:45.035Z,28736
2017-03-18T16:50:57.762Z,31168
2017-03-18T16:52:09.989Z,24160
2017-03-18T16:53:23.218Z,20768
2017-03-18T16:54:36.511Z,16416
2017-03-18T16:55:49.810Z,20672
2017-03-18T16:57:03.079Z,21216
2017-03-18T16:58:15.297Z,17124
2017-03-18T16:59:28.542Z,19648
2017-03-18T17:00:41.270Z,16312
2017-03-18T17:01:54.500Z,19296
2017-03-18T17:03:07.237Z,16024
2017-03-18T17:04:20.955Z,15200
2017-03-18T17:05:34.187Z,17292
2017-03-18T17:06:46.422Z,23584
2017-03-18T17:07:59.662Z,27680
2017-03-18T17:09:12.411Z,27648
2017-03-18T17:10:25.666Z,26112
2017-03-18T17:11:37.867Z,28192
2017-03-18T17:12:51.111Z,29120
2017-03-18T17:14:03.836Z,35168
2017-03-18T17:15:17.085Z,35488
2017-03-18T17:16:30.296Z,41120
2017-03-18T17:17:43.035Z,37728
2017-03-18T17:18:55.810Z,40960
2017-03-18T17:20:08.034Z,31168
2017-03-18T17:21:21.299Z,33184
2017-03-18T17:22:34.054Z,30816
2017-03-18T17:23:47.288Z,32096
2017-03-18T17:25:00.584Z,28288
2017-03-18T17:26:13.285Z,28672
2017-03-18T17:27:26.028Z,29312
2017-03-18T17:28:38.267Z,29536
2017-03-18T17:29:50.513Z,27040
2017-03-18T17:31:03.274Z,22592
2017-03-18T17:32:16.023Z,28192
2017-03-18T17:33:29.326Z,28768
2017-03-18T17:34:42.539Z,26464
2017-03-18T17:35:55.780Z,24928
2017-03-18T17:37:07.982Z,21248
2017-03-18T17:38:20.203Z,18720
2017-03-18T17:39:32.921Z,20640
2017-03-18T17:40:46.228Z,20800